createdAt,value
2022-11-03T00:00:06.555Z,2.97
2022-11-03T00:02:57.432Z,2.67
2022-11-03T00:05:43.207Z,6.72
2022-11-03T00:08:13.298Z,3.05
2022-11-03T00:10:41.707Z,1.75
2022-11-03T00:13:10.403Z,2.85
2022-11-03T00:15:38.720Z,1.88
2022-11-03T00:18:07.290Z,1.45
2022-11-03T00:20:35.534Z,4.68
2022-11-03T00:23:04.555Z,1.58
2022-11-03T00:25:34.539Z,4.38
2022-11-03T00:30:36.392Z,1.50
2022-11-03T00:33:05.225Z,2.28
2022-11-03T00:35:33.770Z,2.85
2022-11-03T00:38:02.364Z,9.25
2022-11-03T00:40:30.872Z,4.72
2022-11-03T00:43:01.396Z,5.63
2022-11-03T00:45:29.958Z,4.18
2022-11-03T00:48:15.703Z,14.15
2022-11-03T00:50:44.420Z,1.73
2022-11-03T00:53:12.922Z,2.97
2022-11-03T00:55:41.593Z,3.60
2022-11-03T00:58:11.579Z,3.53
2022-11-03T01:00:39.887Z,1.80
2022-11-03T01:03:08.707Z,3.92
2022-11-03T01:06:04.510Z,1.70
2022-11-03T01:08:34.414Z,7.57
2022-11-03T01:11:27.482Z,3.17
2022-11-03T01:13:57.822Z,1.95
2022-11-03T01:16:26.479Z,4.13
2022-11-03T01:18:56.428Z,4.53
2022-11-03T01:21:24.950Z,5.47
2022-11-03T01:23:53.592Z,5.28
2022-11-03T01:26:21.898Z,3.30
2022-11-03T01:28:50.728Z,2.00
2022-11-03T01:31:22.630Z,2.63
2022-11-03T01:33:52.941Z,4.93
2022-11-03T01:36:22.077Z,3.60
2022-11-03T01:38:50.804Z,5.07
2022-11-03T01:41:24.400Z,3.97
2022-11-03T01:44:21.412Z,6.07
2022-11-03T01:46:56.735Z,3.58
2022-11-03T01:49:31.530Z,7.88
2022-11-03T01:52:04.570Z,5.68
2022-11-03T01:54:37.517Z,5.68
2022-11-03T01:57:08.446Z,2.90
2022-11-03T01:59:37.877Z,12.90
2022-11-03T02:02:08.189Z,5.68
2022-11-03T02:04:38.042Z,5.45
2022-11-03T02:07:15.437Z,6.53
2022-11-03T02:09:44.389Z,1.70
2022-11-03T02:12:13.216Z,5.93
2022-11-03T02:14:46.358Z,2.83
2022-11-03T02:17:17.344Z,4.15
2022-11-03T02:19:50.177Z,3.07
2022-11-03T02:22:40.196Z,3.50
2022-11-03T02:25:18.786Z,5.33
2022-11-03T02:27:48.688Z,3.97
2022-11-03T02:30:17.730Z,8.02
2022-11-03T02:32:56.561Z,5.13
2022-11-03T02:35:32.358Z,5.77
2022-11-03T02:38:03.926Z,6.13
2022-11-03T02:40:36.354Z,5.63
2022-11-03T02:43:09.276Z,6.45
2022-11-03T02:45:39.843Z,6.90
2022-11-03T02:48:09.096Z,5.47
2022-11-03T02:50:37.833Z,3.40
2022-11-03T02:53:06.522Z,4.28
2022-11-03T02:55:39.311Z,7.50
2022-11-03T02:58:17.000Z,7.07
2022-11-03T03:00:50.291Z,8.52
2022-11-03T03:03:23.534Z,6.10
2022-11-03T03:05:55.322Z,8.47
2022-11-03T03:08:26.466Z,3.95
2022-11-03T03:10:56.624Z,6.20
2022-11-03T03:13:26.643Z,6.10
2022-11-03T03:16:05.574Z,4.37
2022-11-03T03:18:43.252Z,6.97
2022-11-03T03:21:16.253Z,4.88
2022-11-03T03:23:49.932Z,4.88
2022-11-03T03:26:23.034Z,3.53
2022-11-03T03:28:55.360Z,4.55
2022-11-03T03:31:25.687Z,3.90
2022-11-03T03:34:04.385Z,11.07
2022-11-03T03:36:41.102Z,18.70
2022-11-03T03:39:12.943Z,8.27
2022-11-03T03:41:42.622Z,4.17
2022-11-03T03:44:13.720Z,5.07
2022-11-03T03:46:47.197Z,10.73
2022-11-03T03:49:15.644Z,5.32
2022-11-03T03:51:45.075Z,6.97
2022-11-03T03:54:13.407Z,9.70
2022-11-03T03:56:46.765Z,4.87
2022-11-03T03:59:16.781Z,6.40
2022-11-03T04:01:45.656Z,9.00
2022-11-03T04:04:14.343Z,9.90
2022-11-03T04:06:42.683Z,6.88
2022-11-03T04:09:11.331Z,4.33
2022-11-03T04:11:57.103Z,6.10
2022-11-03T04:14:44.631Z,4.57
2022-11-03T04:17:38.204Z,8.93
2022-11-03T04:20:32.138Z,7.97
2022-11-03T04:23:00.448Z,6.55
2022-11-03T04:25:29.023Z,8.70
2022-11-03T04:27:57.450Z,5.93
2022-11-03T04:30:28.381Z,7.00
2022-11-03T04:32:56.872Z,7.37
2022-11-03T04:35:27.907Z,9.57
2022-11-03T04:37:59.451Z,8.47
2022-11-03T04:40:29.394Z,4.53
2022-11-03T04:42:58.797Z,7.47
2022-11-03T04:45:34.120Z,6.10
2022-11-03T04:48:07.798Z,5.90
2022-11-03T04:50:36.458Z,8.60
2022-11-03T04:53:13.269Z,10.48
2022-11-03T04:55:42.517Z,5.53
2022-11-03T04:58:18.830Z,6.45
2022-11-03T05:00:49.290Z,7.23
2022-11-03T05:03:22.558Z,6.07
2022-11-03T05:05:51.764Z,12.17
2022-11-03T05:08:21.168Z,13.50
2022-11-03T05:10:51.034Z,5.90
2022-11-03T05:13:23.723Z,7.07
2022-11-03T05:15:55.991Z,5.97
2022-11-03T05:18:28.629Z,10.00
2022-11-03T05:21:01.107Z,9.07
2022-11-03T05:23:31.972Z,7.43
2022-11-03T05:26:01.261Z,6.73
2022-11-03T05:28:36.903Z,6.10
2022-11-03T05:31:21.909Z,5.57
2022-11-03T05:33:52.681Z,7.60
2022-11-03T05:36:23.880Z,6.70
2022-11-03T05:38:54.943Z,7.27
2022-11-03T05:41:25.812Z,13.83
2022-11-03T05:43:58.686Z,10.70
2022-11-03T05:46:32.346Z,10.60
2022-11-03T05:49:03.373Z,7.47
2022-11-03T05:51:38.784Z,6.13
2022-11-03T05:54:18.595Z,14.97
2022-11-03T05:56:49.298Z,8.60
2022-11-03T05:59:24.371Z,7.97
2022-11-03T06:01:55.825Z,14.10
2022-11-03T06:04:31.128Z,5.43
2022-11-03T06:07:03.464Z,7.23
2022-11-03T06:09:34.108Z,7.37
2022-11-03T06:12:06.917Z,6.87
2022-11-03T06:14:37.488Z,7.63
2022-11-03T06:17:12.495Z,9.93
2022-11-03T06:19:43.468Z,14.07
2022-11-03T06:22:19.779Z,7.77
2022-11-03T06:24:48.862Z,11.90
2022-11-03T06:27:19.743Z,5.10
2022-11-03T06:29:57.576Z,10.97
2022-11-03T06:32:27.915Z,11.37
2022-11-03T06:34:58.924Z,5.67
2022-11-03T06:37:32.223Z,9.80
2022-11-03T06:40:18.018Z,10.50
2022-11-03T06:42:46.879Z,10.98
2022-11-03T06:45:20.991Z,6.20
2022-11-03T06:47:51.655Z,7.67
2022-11-03T06:50:23.589Z,9.97
2022-11-03T06:52:54.676Z,5.83
2022-11-03T06:55:27.938Z,4.70
2022-11-03T06:58:00.259Z,3.90
2022-11-03T07:00:36.093Z,9.07
2022-11-03T07:03:15.329Z,11.87
2022-11-03T07:05:45.229Z,11.88
2022-11-03T07:08:24.467Z,8.23
2022-11-03T07:10:58.484Z,9.67
2022-11-03T07:13:28.601Z,12.45
2022-11-03T07:15:56.835Z,9.93
2022-11-03T07:18:30.603Z,10.85
2022-11-03T07:21:00.325Z,6.60
2022-11-03T07:23:32.115Z,5.20
2022-11-03T07:26:03.336Z,13.35
2022-11-03T07:28:36.179Z,7.95
2022-11-03T07:31:16.374Z,8.73
2022-11-03T07:33:47.169Z,10.48
2022-11-03T07:36:20.746Z,9.38
2022-11-03T07:38:52.761Z,10.13
2022-11-03T07:41:23.191Z,6.63
2022-11-03T07:43:57.101Z,5.82
2022-11-03T07:46:26.370Z,6.40
2022-11-03T07:48:57.998Z,7.50
2022-11-03T07:51:29.859Z,12.05
2022-11-03T07:54:03.898Z,10.80
2022-11-03T07:56:36.677Z,9.68
2022-11-03T07:59:16.862Z,8.60
2022-11-03T08:01:48.910Z,7.22
2022-11-03T08:04:22.875Z,9.70
2022-11-03T08:06:51.484Z,8.07
2022-11-03T08:09:21.216Z,7.45
2022-11-03T08:11:50.575Z,7.07
2022-11-03T08:14:19.387Z,7.30
2022-11-03T08:16:47.641Z,13.80
2022-11-03T08:19:16.225Z,11.02
2022-11-03T08:21:45.831Z,8.93
2022-11-03T08:24:14.930Z,10.57
2022-11-03T08:26:43.270Z,6.45
2022-11-03T08:29:11.754Z,9.40
2022-11-03T08:31:39.955Z,6.63
2022-11-03T08:34:08.619Z,11.75
2022-11-03T08:36:37.310Z,7.07
2022-11-03T08:39:07.403Z,10.98
2022-11-03T08:41:35.720Z,8.93
2022-11-03T08:44:04.329Z,5.57
2022-11-03T08:46:32.819Z,4.55
2022-11-03T08:49:01.386Z,16.10
2022-11-03T08:51:29.717Z,14.32
2022-11-03T08:53:58.323Z,8.55
2022-11-03T08:56:28.006Z,20.67
2022-11-03T08:58:56.510Z,21.02
2022-11-03T09:01:24.832Z,6.95
2022-11-03T09:03:53.391Z,15.40
2022-11-03T09:06:21.745Z,14.45
2022-11-03T09:11:39.904Z,8.65
2022-11-03T09:14:08.374Z,4.75
2022-11-03T09:16:36.687Z,5.75
2022-11-03T09:19:05.038Z,7.22
2022-11-03T09:21:33.610Z,5.72
2022-11-03T09:24:01.907Z,7.53
2022-11-03T09:26:30.519Z,7.72
2022-11-03T09:29:00.196Z,8.63
2022-11-03T09:31:29.697Z,2.45
2022-11-03T09:33:58.724Z,6.55
2022-11-03T09:36:27.266Z,21.17
2022-11-03T09:38:55.582Z,15.63
2022-11-03T09:41:27.802Z,17.00
2022-11-03T09:44:13.101Z,15.65
2022-11-03T09:46:41.680Z,13.75
2022-11-03T09:49:13.779Z,6.00
2022-11-03T09:51:43.172Z,4.65
2022-11-03T09:54:15.065Z,6.88
2022-11-03T09:56:44.549Z,4.05
2022-11-03T09:59:17.705Z,5.40
2022-11-03T10:01:49.839Z,7.50
2022-11-03T10:04:20.642Z,6.20
2022-11-03T10:06:49.143Z,2.65
2022-11-03T10:09:20.715Z,7.72
2022-11-03T10:11:49.385Z,12.80
2022-11-03T10:14:19.983Z,8.60
2022-11-03T10:16:56.379Z,2.75
2022-11-03T10:19:25.351Z,4.43
2022-11-03T10:21:53.851Z,6.30
2022-11-03T10:24:22.171Z,4.95
2022-11-03T10:26:52.402Z,5.53
2022-11-03T10:29:23.879Z,4.72
2022-11-03T10:31:54.819Z,5.78
2022-11-03T10:34:29.219Z,9.00
2022-11-03T10:37:23.782Z,8.45
2022-11-03T10:39:53.498Z,3.30
2022-11-03T10:42:23.948Z,6.43
2022-11-03T10:44:54.925Z,16.17
2022-11-03T10:47:33.722Z,2.72
2022-11-03T10:50:19.413Z,8.00
2022-11-03T10:52:48.303Z,8.50
2022-11-03T10:55:20.639Z,5.60
2022-11-03T10:57:55.508Z,9.07
2022-11-03T11:00:25.556Z,7.28
2022-11-03T11:03:01.143Z,6.68
2022-11-03T11:05:29.630Z,3.67
2022-11-03T11:08:00.107Z,3.88
2022-11-03T11:10:31.353Z,2.13
2022-11-03T11:13:19.161Z,4.65
2022-11-03T11:15:50.282Z,4.13
2022-11-03T11:18:52.396Z,2.63
2022-11-03T11:21:58.424Z,1.65
2022-11-03T11:24:57.636Z,2.80
2022-11-03T11:27:48.610Z,1.38
2022-11-03T11:31:04.918Z,7.90
2022-11-03T11:33:35.432Z,1.08
2022-11-03T11:36:20.043Z,3.55
2022-11-03T11:39:09.453Z,4.47
2022-11-03T11:42:10.266Z,10.93
2022-11-03T11:45:08.900Z,4.05
2022-11-03T11:47:45.983Z,4.47
2022-11-03T11:50:23.813Z,2.28
2022-11-03T11:52:58.210Z,3.75
2022-11-03T11:55:40.750Z,1.98
2022-11-03T11:58:18.257Z,6.60
2022-11-03T12:01:01.107Z,2.72
2022-11-03T12:03:37.680Z,1.65
2022-11-03T12:06:07.904Z,8.13
2022-11-03T12:08:36.449Z,1.88
2022-11-03T12:11:06.696Z,1.83
2022-11-03T12:13:53.094Z,7.63
2022-11-03T12:16:38.114Z,2.20
2022-11-03T12:19:38.664Z,4.38
2022-11-03T12:22:10.590Z,2.70
2022-11-03T12:24:48.085Z,8.20
2022-11-03T12:27:41.342Z,3.08
2022-11-03T12:30:15.896Z,3.20
2022-11-03T12:32:44.649Z,5.38
2022-11-03T12:35:13.884Z,2.67
2022-11-03T12:37:43.758Z,2.92
2022-11-03T12:40:14.050Z,6.10
2022-11-03T12:42:42.304Z,1.35
2022-11-03T12:45:13.775Z,3.40
2022-11-03T12:47:42.328Z,9.05
2022-11-03T12:50:11.317Z,3.45
2022-11-03T12:52:39.887Z,3.80
2022-11-03T12:55:10.293Z,2.35
2022-11-03T12:57:38.891Z,2.30
2022-11-03T13:00:08.723Z,4.60
2022-11-03T13:02:37.312Z,2.30
2022-11-03T13:05:06.890Z,6.68
2022-11-03T13:07:35.487Z,8.60
2022-11-03T13:10:04.848Z,6.07
2022-11-03T13:12:36.767Z,2.50
2022-11-03T13:15:10.160Z,5.13
2022-11-03T13:18:11.622Z,4.55
2022-11-03T13:20:27.429Z,4.13
2022-11-03T13:22:55.916Z,5.75
2022-11-03T13:25:25.151Z,6.40
2022-11-03T13:27:55.109Z,4.22
2022-11-03T13:30:23.984Z,5.22
2022-11-03T13:32:52.878Z,3.65
2022-11-03T13:35:21.180Z,9.98
2022-11-03T13:37:49.885Z,1.60
2022-11-03T13:40:42.750Z,5.72
2022-11-03T13:43:08.484Z,5.10
2022-11-03T13:45:36.971Z,3.20
2022-11-03T13:50:54.461Z,3.20
2022-11-03T13:56:16.868Z,4.50
2022-11-03T14:01:40.888Z,10.93
2022-11-03T14:06:59.029Z,6.25
2022-11-03T14:09:27.659Z,3.92
2022-11-03T14:12:13.422Z,6.22
2022-11-03T14:14:43.488Z,4.43
2022-11-03T14:17:12.319Z,4.90
2022-11-03T14:19:45.951Z,2.42
2022-11-03T14:22:17.176Z,2.35
2022-11-03T14:24:45.647Z,6.90
2022-11-03T14:27:15.725Z,2.97
2022-11-03T14:29:45.913Z,3.45
2022-11-03T14:32:14.376Z,6.07
2022-11-03T14:34:43.774Z,6.38
2022-11-03T14:37:12.658Z,6.22
2022-11-03T14:39:41.341Z,1.70
2022-11-03T14:42:15.180Z,14.60
2022-11-03T14:44:46.747Z,4.82
2022-11-03T14:47:18.582Z,11.50
2022-11-03T14:49:47.372Z,6.25
2022-11-03T14:52:16.847Z,4.28
2022-11-03T14:54:45.461Z,2.72
2022-11-03T14:57:13.744Z,3.60
2022-11-03T14:59:42.253Z,3.95
2022-11-03T15:02:11.984Z,9.15
2022-11-03T15:04:42.069Z,2.92
2022-11-03T15:07:10.317Z,5.30
2022-11-03T15:09:38.593Z,4.03
2022-11-03T15:12:07.395Z,5.53
2022-11-03T15:14:35.620Z,5.43
2022-11-03T15:17:04.340Z,9.98
2022-11-03T15:19:34.418Z,4.03
2022-11-03T15:22:02.623Z,3.63
2022-11-03T15:27:19.249Z,6.30
2022-11-03T15:29:47.733Z,3.40
2022-11-03T15:32:15.951Z,9.48
2022-11-03T15:34:45.826Z,6.75
2022-11-03T15:37:14.046Z,4.95
2022-11-03T15:39:42.792Z,9.48
2022-11-03T15:42:11.005Z,4.90
2022-11-03T15:44:39.612Z,11.82
2022-11-03T15:47:08.117Z,8.98
2022-11-03T15:49:39.860Z,13.50
2022-11-03T15:52:10.125Z,7.57
2022-11-03T15:54:42.454Z,6.32
2022-11-03T15:57:11.184Z,9.18
2022-11-03T15:59:40.353Z,4.38
2022-11-03T16:02:35.134Z,10.45
2022-11-03T16:04:57.338Z,4.93
2022-11-03T16:07:27.112Z,13.70
2022-11-03T16:09:56.454Z,8.82
2022-11-03T16:12:24.661Z,12.75
2022-11-03T16:14:53.276Z,7.75
2022-11-03T16:17:22.956Z,6.93
2022-11-03T16:19:51.709Z,5.43
2022-11-03T16:22:20.217Z,5.22
2022-11-03T16:24:49.854Z,8.48
2022-11-03T16:27:18.645Z,3.63
2022-11-03T16:29:47.041Z,9.60
2022-11-03T16:32:15.561Z,3.67
2022-11-03T16:34:44.801Z,2.88
2022-11-03T16:37:13.949Z,5.07
2022-11-03T16:39:42.572Z,5.97
2022-11-03T16:42:12.534Z,5.85
2022-11-03T16:44:40.878Z,13.63
2022-11-03T16:47:09.261Z,8.63
2022-11-03T16:49:41.594Z,14.57
2022-11-03T16:52:10.953Z,13.15
2022-11-03T16:54:39.342Z,11.60
2022-11-03T16:57:07.816Z,13.52
2022-11-03T16:59:37.434Z,18.85
2022-11-03T17:02:06.013Z,26.25
2022-11-03T17:04:34.621Z,25.92
2022-11-03T17:07:03.154Z,40.72
2022-11-03T17:09:31.347Z,35.05
2022-11-03T17:11:59.873Z,29.60
2022-11-03T17:14:28.139Z,37.53
2022-11-03T17:17:00.816Z,20.27
2022-11-03T17:19:29.150Z,32.97
2022-11-03T17:21:57.756Z,27.15
2022-11-03T17:24:26.529Z,31.65
2022-11-03T17:26:58.987Z,30.15
2022-11-03T17:29:34.372Z,25.25
2022-11-03T17:32:07.058Z,21.67
2022-11-03T17:34:35.564Z,26.92
2022-11-03T17:37:04.190Z,26.40
2022-11-03T17:39:35.469Z,18.95
2022-11-03T17:42:16.831Z,19.33
2022-11-03T17:44:45.841Z,35.08
2022-11-03T17:47:16.086Z,24.15
2022-11-03T17:49:44.702Z,21.73
2022-11-03T17:52:25.124Z,20.95
2022-11-03T17:54:58.467Z,20.70
2022-11-03T17:57:27.714Z,22.25
2022-11-03T17:59:57.383Z,18.55
2022-11-03T18:02:29.760Z,14.70
2022-11-03T18:05:03.823Z,19.33
2022-11-03T18:07:32.699Z,12.13
2022-11-03T18:10:00.971Z,24.25
2022-11-03T18:12:54.322Z,17.70
2022-11-03T18:15:27.197Z,22.45
2022-11-03T18:17:57.329Z,20.33
2022-11-03T18:20:29.289Z,29.52
2022-11-03T18:23:06.891Z,28.33
2022-11-03T18:25:35.387Z,40.75
2022-11-03T18:28:04.147Z,25.02
2022-11-03T18:30:32.509Z,23.92
2022-11-03T18:33:02.417Z,29.00
2022-11-03T18:35:33.380Z,33.25
2022-11-03T18:38:04.637Z,34.30
2022-11-03T18:40:38.851Z,24.60
2022-11-03T18:43:14.004Z,39.80
2022-11-03T18:45:42.378Z,32.22
2022-11-03T18:48:19.352Z,33.30
2022-11-03T18:50:49.813Z,34.80
2022-11-03T18:53:19.953Z,33.97
2022-11-03T18:55:48.651Z,35.85
2022-11-03T18:58:18.663Z,43.20
2022-11-03T19:00:47.172Z,40.55
2022-11-03T19:03:18.926Z,49.80
2022-11-03T19:05:49.133Z,40.90
2022-11-03T19:08:21.733Z,35.15
2022-11-03T19:10:51.129Z,39.57
2022-11-03T19:13:28.659Z,40.28
2022-11-03T19:15:57.807Z,39.00
2022-11-03T19:18:29.423Z,35.97
2022-11-03T19:20:58.170Z,52.67
2022-11-03T19:23:26.766Z,38.53
2022-11-03T19:25:59.424Z,40.90
2022-11-03T19:28:32.297Z,34.92
2022-11-03T19:31:01.030Z,41.17
2022-11-03T19:33:32.955Z,38.97
2022-11-03T19:36:01.677Z,29.50
2022-11-03T19:38:30.230Z,34.03
2022-11-03T19:41:16.147Z,32.35
2022-11-03T19:43:44.985Z,31.27
2022-11-03T19:46:20.010Z,29.33
2022-11-03T19:48:50.135Z,25.83
2022-11-03T19:51:18.451Z,36.90
2022-11-03T19:53:47.659Z,33.70
2022-11-03T19:56:16.696Z,32.00
2022-11-03T19:58:45.278Z,33.33
2022-11-03T20:01:13.652Z,25.53
2022-11-03T20:03:42.355Z,36.50
2022-11-03T20:06:15.385Z,23.43
2022-11-03T20:08:47.346Z,33.50
2022-11-03T20:11:15.680Z,32.47
2022-11-03T20:13:45.041Z,38.90
2022-11-03T20:16:15.507Z,32.67
2022-11-03T20:18:44.573Z,31.88
2022-11-03T20:21:17.044Z,29.13
2022-11-03T20:23:46.565Z,36.88
2022-11-03T20:26:18.582Z,36.58
2022-11-03T20:28:47.363Z,31.03
2022-11-03T20:31:16.840Z,26.52
2022-11-03T20:33:46.540Z,39.20
2022-11-03T20:36:19.862Z,30.65
2022-11-03T20:38:52.002Z,33.08
2022-11-03T20:41:20.804Z,29.67
2022-11-03T20:43:49.772Z,27.50
2022-11-03T20:46:24.211Z,24.05
2022-11-03T20:48:53.180Z,23.65
2022-11-03T20:51:25.093Z,28.95
2022-11-03T20:53:54.363Z,28.63
2022-11-03T20:56:24.634Z,24.77
2022-11-03T20:58:53.705Z,24.65
2022-11-03T21:01:26.898Z,25.05
2022-11-03T21:04:00.395Z,19.80
2022-11-03T21:06:32.638Z,25.60
2022-11-03T21:09:01.950Z,34.78
2022-11-03T21:11:36.790Z,25.52
2022-11-03T21:14:14.077Z,20.73
2022-11-03T21:17:00.410Z,23.58
2022-11-03T21:19:57.216Z,25.73
2022-11-03T21:25:23.400Z,18.67
2022-11-03T21:27:53.635Z,26.25
2022-11-03T21:30:22.698Z,23.15
2022-11-03T21:32:51.631Z,19.25
2022-11-03T21:35:22.338Z,21.52
2022-11-03T21:37:52.369Z,21.23
2022-11-03T21:40:20.872Z,26.05
2022-11-03T21:43:06.756Z,24.33
2022-11-03T21:45:36.056Z,20.55
2022-11-03T21:48:23.530Z,17.10
2022-11-03T21:50:51.982Z,25.33
2022-11-03T21:53:22.047Z,23.58
2022-11-03T21:55:50.818Z,19.38
2022-11-03T21:58:19.343Z,24.17
2022-11-03T22:00:47.743Z,23.08
2022-11-03T22:03:16.563Z,36.90
2022-11-03T22:05:45.003Z,28.75
2022-11-03T22:08:13.720Z,30.48
2022-11-03T22:10:43.624Z,28.40
2022-11-03T22:13:12.503Z,28.08
2022-11-03T22:15:58.267Z,18.80
2022-11-03T22:18:26.811Z,26.10
2022-11-03T22:21:12.476Z,23.30
2022-11-03T22:23:58.255Z,23.40
2022-11-03T22:26:45.591Z,27.80
2022-11-03T22:29:31.782Z,26.45
2022-11-03T22:32:00.052Z,24.35
2022-11-03T22:34:47.958Z,16.50
2022-11-03T22:37:16.241Z,21.10
2022-11-03T22:40:04.321Z,19.98
2022-11-03T22:42:51.605Z,18.80
2022-11-03T22:45:37.765Z,15.02
2022-11-03T22:48:06.797Z,19.77
2022-11-03T22:50:35.373Z,12.77
2022-11-03T22:53:24.115Z,19.15
2022-11-03T22:55:51.980Z,13.88
2022-11-03T22:58:23.452Z,12.65
2022-11-03T23:00:55.085Z,16.23
2022-11-03T23:03:23.320Z,13.15
2022-11-03T23:05:51.914Z,13.70
2022-11-03T23:08:20.461Z,19.13
2022-11-03T23:10:49.126Z,13.60
2022-11-03T23:13:17.802Z,12.40
2022-11-03T23:15:47.795Z,13.65
2022-11-03T23:18:33.611Z,18.55
2022-11-03T23:21:08.282Z,14.80
2022-11-03T23:23:55.356Z,20.25
2022-11-03T23:26:25.421Z,14.15
2022-11-03T23:28:53.816Z,14.00
2022-11-03T23:31:23.849Z,15.20
2022-11-03T23:33:52.287Z,10.23
2022-11-03T23:36:21.095Z,15.32
2022-11-03T23:38:49.399Z,16.45
2022-11-03T23:41:19.314Z,10.30
2022-11-03T23:43:48.470Z,14.35
2022-11-03T23:46:36.252Z,10.38
2022-11-03T23:49:06.883Z,12.50
2022-11-03T23:51:36.736Z,15.73
2022-11-03T23:54:07.179Z,9.52
2022-11-03T23:56:54.829Z,8.30
2022-11-03T23:59:23.757Z,17.40
